From beautiful Ljubljana to challenging Maribor

If you’re looking for that perfect green and safe oasis, you’ve come to the right place. Slovenia is the green heart of Europe, where everyone can find something for themselves. It’s difficult to find such a small region offering so much anywhere else in the world. Four different worlds are combined into a magnificent symphony that can be felt in culture, gastronomy and natural wonders. Whether you enjoy walking well-trodden paths or prefer to turn off the beaten track, you will find stunning beauty and boutique experiences tailored just for you everywhere you go.

Airport GND TWR APP Metar
LJLJ LJLJ 220730Z 30003KT 9999 BKN036 BKN055 06/04 Q1013 NOSIG
LJPZ LJPZ 220730Z 13010KT CAVOK 12/08 Q1014
LJMB LJMB 220730Z 22014KT CAVOK 11/01 Q1010

Approved controllers

Coming soon!